createdAt,value
2022-08-25T00:01:37.860Z,101860.00
2022-08-25T00:04:10.281Z,101856.81
2022-08-25T00:06:38.444Z,101857.47
2022-08-25T00:09:05.728Z,101857.47
2022-08-25T00:11:34.028Z,101855.38
2022-08-25T00:14:04.900Z,101850.41
2022-08-25T00:16:32.413Z,101849.78
2022-08-25T00:19:03.189Z,101850.56
2022-08-25T00:21:31.781Z,101853.97
2022-08-25T00:23:59.679Z,101847.84
2022-08-25T00:26:27.552Z,101838.84
2022-08-25T00:28:54.256Z,101844.31
2022-08-25T00:31:38.500Z,101849.47
2022-08-25T00:34:11.601Z,101844.66
2022-08-25T00:36:38.567Z,101849.28
2022-08-25T00:39:07.353Z,101842.56
2022-08-25T00:41:35.380Z,101852.19
2022-08-25T00:44:05.232Z,101857.16
2022-08-25T00:46:38.969Z,101851.53
2022-08-25T00:49:14.689Z,101851.03
2022-08-25T00:51:55.102Z,101849.91
2022-08-25T00:54:29.925Z,101843.47
2022-08-25T00:56:59.138Z,101840.91
2022-08-25T00:59:26.873Z,101855.19
2022-08-25T01:01:55.050Z,101852.59
2022-08-25T01:04:22.124Z,101848.44
2022-08-25T01:06:49.242Z,101845.06
2022-08-25T01:09:16.675Z,101842.16
2022-08-25T01:11:44.783Z,101845.19
2022-08-25T01:14:15.960Z,101848.38
2022-08-25T01:16:43.740Z,101843.72
2022-08-25T01:19:15.499Z,101839.50
2022-08-25T01:21:48.077Z,101831.97
2022-08-25T01:24:21.216Z,101835.34
2022-08-25T01:26:47.725Z,101839.31
2022-08-25T01:29:25.265Z,101832.88
2022-08-25T01:31:57.351Z,101832.09
2022-08-25T01:34:26.496Z,101835.94
2022-08-25T01:36:54.435Z,101834.13
2022-08-25T01:39:20.924Z,101835.38
2022-08-25T01:41:58.594Z,101838.75
2022-08-25T01:44:25.833Z,101836.63
2022-08-25T01:46:52.913Z,101836.13
2022-08-25T01:49:19.264Z,101838.69
2022-08-25T01:51:53.405Z,101826.53
2022-08-25T01:54:20.298Z,101834.19
2022-08-25T01:56:46.995Z,101825.81
2022-08-25T01:59:23.953Z,101830.31
2022-08-25T02:01:50.562Z,101829.31
2022-08-25T02:04:17.035Z,101825.91
2022-08-25T02:06:48.141Z,101828.47
2022-08-25T02:09:16.777Z,101824.75
2022-08-25T02:11:46.470Z,101826.19
2022-08-25T02:14:14.032Z,101824.56
2022-08-25T02:16:44.647Z,101818.31
2022-08-25T02:19:12.020Z,101833.34
2022-08-25T02:21:39.396Z,101824.34
2022-08-25T02:24:06.938Z,101826.06
2022-08-25T02:26:36.144Z,101829.91
2022-08-25T02:29:04.031Z,101829.13
2022-08-25T02:31:30.453Z,101829.13
2022-08-25T02:33:57.207Z,101824.78
2022-08-25T02:36:23.832Z,101821.44
2022-08-25T02:38:50.721Z,101823.84
2022-08-25T02:41:20.917Z,101826.56
2022-08-25T02:43:48.568Z,101820.31
2022-08-25T02:46:17.910Z,101811.53
2022-08-25T02:48:45.131Z,101813.97
2022-08-25T02:51:12.378Z,101817.78
2022-08-25T02:53:40.504Z,101819.41
2022-08-25T02:56:09.723Z,101810.72
2022-08-25T02:58:37.253Z,101816.00
2022-08-25T03:01:04.861Z,101810.56
2022-08-25T03:03:31.466Z,101800.78
2022-08-25T03:05:57.867Z,101808.13
2022-08-25T03:08:25.171Z,101800.56
2022-08-25T03:10:52.056Z,101803.00
2022-08-25T03:13:18.681Z,101804.28
2022-08-25T03:15:46.144Z,101795.63
2022-08-25T03:18:15.864Z,101793.91
2022-08-25T03:20:44.481Z,101790.06
2022-08-25T03:23:11.280Z,101790.06
2022-08-25T03:26:00.631Z,101784.31
2022-08-25T03:28:31.130Z,101783.03
2022-08-25T03:30:57.564Z,101786.69
2022-08-25T03:33:23.942Z,101784.75
2022-08-25T03:35:50.402Z,101779.63
2022-08-25T03:38:16.958Z,101782.03
2022-08-25T03:40:43.348Z,101772.25
2022-08-25T03:43:09.699Z,101772.56
2022-08-25T03:45:41.364Z,101775.91
2022-08-25T03:48:07.890Z,101769.09
2022-08-25T03:50:34.590Z,101769.53
2022-08-25T03:53:00.977Z,101766.91
2022-08-25T03:55:27.606Z,101757.78
2022-08-25T03:57:54.641Z,101772.78
2022-08-25T04:00:22.853Z,101755.78
2022-08-25T04:02:49.553Z,101764.09
2022-08-25T04:05:16.071Z,101760.38
2022-08-25T04:07:42.463Z,101759.88
2022-08-25T04:10:10.401Z,101760.00
2022-08-25T04:12:37.622Z,101753.25
2022-08-25T04:15:05.580Z,101764.13
2022-08-25T04:17:32.329Z,101761.53
2022-08-25T04:19:59.345Z,101757.31
2022-08-25T04:22:25.799Z,101752.19
2022-08-25T04:24:55.232Z,101749.47
2022-08-25T04:27:21.575Z,101748.16
2022-08-25T04:29:47.987Z,101747.97
2022-08-25T04:32:14.443Z,101742.84
2022-08-25T04:34:41.383Z,101742.34
2022-08-25T04:37:07.882Z,101752.22
2022-08-25T04:39:34.320Z,101744.38
2022-08-25T04:42:01.450Z,101743.25
2022-08-25T04:44:29.013Z,101738.94
2022-08-25T04:46:55.535Z,101741.97
2022-08-25T04:49:21.925Z,101748.00
2022-08-25T04:51:48.303Z,101743.50
2022-08-25T04:54:22.300Z,101747.59
2022-08-25T04:56:50.352Z,101749.91
2022-08-25T04:59:21.222Z,101751.56
2022-08-25T05:01:50.110Z,101743.09
2022-08-25T05:04:28.262Z,101742.50
2022-08-25T05:06:56.677Z,101745.72
2022-08-25T05:09:23.805Z,101748.44
2022-08-25T05:11:51.921Z,101750.03
2022-08-25T05:14:21.602Z,101745.59
2022-08-25T05:16:52.052Z,101740.03
2022-08-25T05:19:18.706Z,101750.50
2022-08-25T05:21:45.061Z,101745.75
2022-08-25T05:24:11.454Z,101754.78
2022-08-25T05:26:38.327Z,101752.13
2022-08-25T05:29:06.143Z,101750.91
2022-08-25T05:31:36.334Z,101754.00
2022-08-25T05:34:08.832Z,101762.03
2022-08-25T05:36:35.761Z,101762.22
2022-08-25T05:39:02.244Z,101768.66
2022-08-25T05:41:30.611Z,101776.91
2022-08-25T05:43:57.660Z,101775.72
2022-08-25T05:46:24.628Z,101773.88
2022-08-25T05:48:51.887Z,101764.50
2022-08-25T05:51:21.495Z,101770.34
2022-08-25T05:53:50.657Z,101775.06
2022-08-25T05:56:18.313Z,101769.34
2022-08-25T05:58:45.803Z,101776.38
2022-08-25T06:01:44.937Z,101771.75
2022-08-25T06:04:12.851Z,101766.78
2022-08-25T06:06:39.635Z,101769.59
2022-08-25T06:09:08.550Z,101767.75
2022-08-25T06:11:36.166Z,101767.72
2022-08-25T06:14:02.641Z,101777.31
2022-08-25T06:16:29.178Z,101772.25
2022-08-25T06:18:55.578Z,101776.66
2022-08-25T06:21:22.003Z,101782.63
2022-08-25T06:23:49.199Z,101787.75
2022-08-25T06:26:21.297Z,101785.22
2022-08-25T06:28:49.322Z,101781.03
2022-08-25T06:31:15.796Z,101781.88
2022-08-25T06:33:42.918Z,101787.00
2022-08-25T06:36:09.677Z,101783.63
2022-08-25T06:38:36.694Z,101792.59
2022-08-25T06:41:05.517Z,101784.03
2022-08-25T06:43:35.539Z,101785.63
2022-08-25T06:46:14.359Z,101782.06
2022-08-25T06:48:41.500Z,101783.47
2022-08-25T06:51:10.220Z,101781.16
2022-08-25T06:53:41.334Z,101774.22
2022-08-25T06:56:08.338Z,101771.28
2022-08-25T06:58:35.339Z,101774.44
2022-08-25T07:01:20.024Z,101774.06
2022-08-25T07:03:47.511Z,101769.75
2022-08-25T07:06:14.870Z,101772.56
2022-08-25T07:08:45.870Z,101773.44
2022-08-25T07:11:16.319Z,101769.34
2022-08-25T07:13:44.684Z,101770.81
2022-08-25T07:16:11.369Z,101767.63
2022-08-25T07:18:38.376Z,101772.41
2022-08-25T07:21:05.720Z,101775.41
2022-08-25T07:23:35.432Z,101777.69
2022-08-25T07:26:36.307Z,101783.75
2022-08-25T07:29:00.781Z,101784.47
2022-08-25T07:31:29.482Z,101784.78
2022-08-25T07:34:14.707Z,101783.22
2022-08-25T07:36:43.061Z,101782.63
2022-08-25T07:39:09.540Z,101775.31
2022-08-25T07:41:37.807Z,101783.66
2022-08-25T07:44:05.635Z,101781.50
2022-08-25T07:46:32.688Z,101779.88
2022-08-25T07:49:00.257Z,101775.63
2022-08-25T07:53:53.967Z,101772.34
2022-08-25T07:56:20.316Z,101768.72
2022-08-25T07:58:47.672Z,101763.38
2022-08-25T08:01:19.706Z,101759.38
2022-08-25T08:03:50.058Z,101775.16
2022-08-25T08:06:20.956Z,101760.72
2022-08-25T08:08:49.509Z,101772.03
2022-08-25T08:11:26.539Z,101764.38
2022-08-25T08:13:55.268Z,101766.56
2022-08-25T08:16:24.827Z,101759.56
2022-08-25T08:18:51.746Z,101753.63
2022-08-25T08:21:26.105Z,101749.59
2022-08-25T08:23:58.951Z,101756.06
2022-08-25T08:26:36.391Z,101755.38
2022-08-25T08:29:08.794Z,101752.63
2022-08-25T08:31:36.465Z,101748.41
2022-08-25T08:34:03.715Z,101750.94
2022-08-25T08:36:30.089Z,101751.94
2022-08-25T08:38:56.440Z,101752.31
2022-08-25T08:44:46.203Z,101742.84
2022-08-25T08:47:40.018Z,101741.03
2022-08-25T08:50:27.971Z,101744.47
2022-08-25T08:53:15.696Z,101741.44
2022-08-25T08:55:48.325Z,101743.69
2022-08-25T08:58:28.620Z,101739.47
2022-08-25T09:00:58.202Z,101742.22
2022-08-25T09:03:31.791Z,101728.13
2022-08-25T09:06:03.406Z,101732.78
2022-08-25T09:08:33.437Z,101739.81
2022-08-25T09:11:18.911Z,101732.56
2022-08-25T09:14:18.415Z,101730.69
2022-08-25T09:16:55.324Z,101729.09
2022-08-25T09:19:28.861Z,101728.25
2022-08-25T09:22:04.465Z,101729.16
2022-08-25T09:25:08.834Z,101724.41
2022-08-25T09:28:05.939Z,101727.94
2022-08-25T09:30:58.021Z,101726.50
2022-08-25T09:33:27.030Z,101727.88
2022-08-25T09:35:55.066Z,101725.53
2022-08-25T09:38:26.166Z,101724.81
2022-08-25T09:40:57.288Z,101726.50
2022-08-25T09:43:40.270Z,101712.31
2022-08-25T09:46:10.438Z,101716.28
2022-08-25T09:49:07.718Z,101722.22
2022-08-25T09:51:43.073Z,101709.53
2022-08-25T09:54:12.635Z,101710.75
2022-08-25T09:56:52.717Z,101698.50
2022-08-25T09:59:35.184Z,101703.25
2022-08-25T10:02:05.873Z,101693.34
2022-08-25T10:04:40.092Z,101692.50
2022-08-25T10:07:25.325Z,101697.69
2022-08-25T10:09:56.747Z,101690.91
2022-08-25T10:12:31.105Z,101689.28
2022-08-25T10:14:57.542Z,101682.84
2022-08-25T10:17:29.980Z,101685.13
2022-08-25T10:20:11.528Z,101683.25
2022-08-25T10:22:40.661Z,101681.47
2022-08-25T10:25:10.695Z,101675.19
2022-08-25T10:27:58.453Z,101671.09
2022-08-25T10:30:42.861Z,101673.31
2022-08-25T10:33:30.946Z,101657.00
2022-08-25T10:36:04.527Z,101665.34
2022-08-25T10:38:47.554Z,101658.81
2022-08-25T10:41:35.711Z,101657.03
2022-08-25T10:44:46.521Z,101653.22
2022-08-25T10:47:31.569Z,101645.66
2022-08-25T10:50:23.491Z,101635.53
2022-08-25T10:53:19.038Z,101633.84
2022-08-25T10:55:55.178Z,101632.84
2022-08-25T10:58:36.947Z,101611.44
2022-08-25T11:01:28.846Z,101618.53
2022-08-25T11:04:04.899Z,101611.03
2022-08-25T11:06:53.062Z,101612.53
2022-08-25T11:09:33.115Z,101615.69
2022-08-25T11:12:08.665Z,101610.88
2022-08-25T11:14:40.183Z,101615.88
2022-08-25T11:17:23.979Z,101610.97
2022-08-25T11:19:57.466Z,101605.31
2022-08-25T11:22:45.944Z,101596.97
2022-08-25T11:25:26.087Z,101595.16
2022-08-25T11:28:03.083Z,101600.88
2022-08-25T11:30:30.275Z,101589.59
2022-08-25T11:32:57.764Z,101598.81
2022-08-25T11:35:33.958Z,101574.94
2022-08-25T11:38:12.446Z,101592.75
2022-08-25T11:41:12.996Z,101580.09
2022-08-25T11:43:54.651Z,101574.81
2022-08-25T11:46:58.672Z,101572.28
2022-08-25T11:49:37.451Z,101574.59
2022-08-25T11:52:30.754Z,101572.19
2022-08-25T11:55:14.805Z,101568.97
2022-08-25T11:57:42.678Z,101576.41
2022-08-25T12:00:36.989Z,101574.56
2022-08-25T12:03:45.963Z,101569.06
2022-08-25T12:06:29.432Z,101565.69
2022-08-25T12:09:05.345Z,101569.78
2022-08-25T12:11:37.685Z,101570.88
2022-08-25T12:14:13.735Z,101562.91
2022-08-25T12:17:04.668Z,101563.97
2022-08-25T12:19:34.085Z,101560.78
2022-08-25T12:22:04.086Z,101569.97
2022-08-25T12:24:47.546Z,101564.81
2022-08-25T12:27:28.139Z,101562.63
2022-08-25T12:30:18.482Z,101568.31
2022-08-25T12:33:17.612Z,101554.28
2022-08-25T12:35:57.788Z,101558.91
2022-08-25T12:38:43.574Z,101552.28
2022-08-25T12:41:18.523Z,101553.53
2022-08-25T12:43:48.016Z,101549.28
2022-08-25T12:46:23.755Z,101553.91
2022-08-25T12:49:01.515Z,101545.09
2022-08-25T12:51:33.881Z,101550.19
2022-08-25T12:54:22.444Z,101540.75
2022-08-25T12:56:59.228Z,101541.66
2022-08-25T12:59:37.430Z,101541.88
2022-08-25T13:02:15.778Z,101548.13
2022-08-25T13:05:01.554Z,101547.63
2022-08-25T13:07:48.047Z,101538.88
2022-08-25T13:10:42.511Z,101538.31
2022-08-25T13:13:08.969Z,101530.31
2022-08-25T13:15:41.764Z,101530.44
2022-08-25T13:18:26.347Z,101526.19
2022-08-25T13:21:13.528Z,101530.31
2022-08-25T13:23:44.041Z,101525.88
2022-08-25T13:26:15.354Z,101516.22
2022-08-25T13:28:50.385Z,101512.03
2022-08-25T13:31:28.142Z,101511.84
2022-08-25T13:34:00.074Z,101515.00
2022-08-25T13:36:54.297Z,101508.09
2022-08-25T13:39:45.703Z,101505.41
2022-08-25T13:42:17.487Z,101505.16
2022-08-25T13:44:51.927Z,101498.91
2022-08-25T13:47:43.786Z,101502.28
2022-08-25T13:50:27.030Z,101499.31
2022-08-25T13:53:21.493Z,101496.94
2022-08-25T13:55:53.072Z,101498.38
2022-08-25T13:58:39.487Z,101494.00
2022-08-25T14:01:22.748Z,101491.34
2022-08-25T14:04:39.525Z,101487.59
2022-08-25T14:07:23.116Z,101476.63
2022-08-25T14:09:52.344Z,101483.22
2022-08-25T14:12:44.823Z,101477.44
2022-08-25T14:15:17.642Z,101481.09
2022-08-25T14:17:48.889Z,101470.78
2022-08-25T14:20:28.695Z,101472.81
2022-08-25T14:23:09.793Z,101477.53
2022-08-25T14:25:36.848Z,101469.09
2022-08-25T14:28:13.809Z,101460.34
2022-08-25T14:30:46.090Z,101460.34
2022-08-25T14:33:14.301Z,101461.78
2022-08-25T14:35:43.555Z,101460.00
2022-08-25T14:38:11.435Z,101459.22
2022-08-25T14:40:39.362Z,101454.13
2022-08-25T14:43:10.115Z,101459.47
2022-08-25T14:45:40.088Z,101452.34
2022-08-25T14:48:10.439Z,101455.91
2022-08-25T14:50:37.381Z,101454.25
2022-08-25T14:53:03.981Z,101449.09
2022-08-25T14:55:32.193Z,101444.56
2022-08-25T14:57:59.360Z,101452.66
2022-08-25T15:00:26.399Z,101445.28
2022-08-25T15:02:54.829Z,101439.09
2022-08-25T15:05:26.878Z,101445.72
2022-08-25T15:08:13.102Z,101439.47
2022-08-25T15:10:40.275Z,101438.78
2022-08-25T15:13:06.970Z,101446.28
2022-08-25T15:15:38.036Z,101441.50
2022-08-25T15:18:05.342Z,101433.47
2022-08-25T15:20:32.646Z,101439.19
2022-08-25T15:22:59.050Z,101446.38
2022-08-25T15:25:25.528Z,101436.28
2022-08-25T15:27:52.016Z,101435.25
2022-08-25T15:30:18.523Z,101433.06
2022-08-25T15:32:44.921Z,101431.03
2022-08-25T15:35:15.198Z,101430.69
2022-08-25T15:37:42.125Z,101429.47
2022-08-25T15:40:09.112Z,101434.13
2022-08-25T15:42:37.772Z,101426.97
2022-08-25T15:45:10.354Z,101423.78
2022-08-25T15:47:36.944Z,101428.72
2022-08-25T15:50:14.527Z,101420.16
2022-08-25T15:52:46.673Z,101417.38
2022-08-25T15:55:14.916Z,101420.44
2022-08-25T15:57:42.289Z,101411.19
2022-08-25T16:00:13.699Z,101412.09
2022-08-25T16:02:44.739Z,101409.84
2022-08-25T16:05:12.068Z,101417.59
2022-08-25T16:07:40.115Z,101416.34
2022-08-25T16:10:07.044Z,101403.78
2022-08-25T16:12:33.489Z,101406.03
2022-08-25T16:14:59.908Z,101403.63
2022-08-25T16:17:26.631Z,101407.78
2022-08-25T16:19:52.974Z,101399.09
2022-08-25T16:22:19.326Z,101410.88
2022-08-25T16:24:45.730Z,101408.72
2022-08-25T16:27:12.995Z,101403.31
2022-08-25T16:29:44.081Z,101407.03
2022-08-25T16:32:13.301Z,101404.69
2022-08-25T16:34:40.788Z,101398.88
2022-08-25T16:37:08.524Z,101399.03
2022-08-25T16:39:35.651Z,101406.56
2022-08-25T16:42:02.061Z,101396.56
2022-08-25T16:44:28.486Z,101393.03
2022-08-25T16:46:55.274Z,101399.84
2022-08-25T16:49:24.246Z,101401.56
2022-08-25T16:51:57.228Z,101404.50
2022-08-25T16:54:42.630Z,101394.91
2022-08-25T16:57:09.020Z,101395.50
2022-08-25T16:59:35.680Z,101395.91
2022-08-25T17:02:02.205Z,101396.38
2022-08-25T17:04:32.003Z,101398.84
2022-08-25T17:06:58.819Z,101406.22
2022-08-25T17:09:25.176Z,101407.66
2022-08-25T17:11:56.513Z,101402.88
2022-08-25T17:14:23.043Z,101408.50
2022-08-25T17:16:51.060Z,101409.31
2022-08-25T17:19:17.757Z,101405.34
2022-08-25T17:21:46.150Z,101418.09
2022-08-25T17:24:13.707Z,101421.47
2022-08-25T17:26:42.866Z,101416.84
2022-08-25T17:29:11.497Z,101418.16
2022-08-25T17:31:40.052Z,101428.50
2022-08-25T17:34:10.552Z,101420.66
2022-08-25T17:36:37.271Z,101421.88
2022-08-25T17:39:04.485Z,101429.00
2022-08-25T17:41:33.495Z,101427.84
2022-08-25T17:44:04.672Z,101428.63
2022-08-25T17:46:31.148Z,101430.56
2022-08-25T17:48:57.648Z,101430.53
2022-08-25T17:51:25.204Z,101428.50
2022-08-25T17:53:52.720Z,101426.50
2022-08-25T17:56:21.877Z,101423.69
2022-08-25T17:58:49.883Z,101426.41
2022-08-25T18:01:22.375Z,101419.66
2022-08-25T18:03:49.735Z,101427.88
2022-08-25T18:06:17.316Z,101431.72
2022-08-25T18:08:44.993Z,101427.69
2022-08-25T18:11:19.676Z,101437.53
2022-08-25T18:13:46.686Z,101431.59
2022-08-25T18:16:14.099Z,101433.47
2022-08-25T18:18:41.348Z,101442.38
2022-08-25T18:21:17.853Z,101443.44
2022-08-25T18:23:45.711Z,101445.69
2022-08-25T18:26:14.727Z,101435.38
2022-08-25T18:28:43.925Z,101440.81
2022-08-25T18:31:11.978Z,101441.03
2022-08-25T18:33:41.882Z,101448.69
2022-08-25T18:36:09.762Z,101450.53
2022-08-25T18:38:58.254Z,101442.91
2022-08-25T18:41:26.094Z,101448.19
2022-08-25T18:43:53.004Z,101453.97
2022-08-25T18:46:19.617Z,101455.41
2022-08-25T18:48:49.435Z,101459.22
2022-08-25T18:51:22.849Z,101464.88
2022-08-25T18:53:51.044Z,101463.88
2022-08-25T18:56:19.165Z,101471.63
2022-08-25T18:58:46.732Z,101466.72
2022-08-25T19:01:18.266Z,101470.94
2022-08-25T19:03:45.720Z,101478.13
2022-08-25T19:06:12.323Z,101479.94
2022-08-25T19:08:41.935Z,101484.47
2022-08-25T19:11:09.662Z,101485.84
2022-08-25T19:13:36.268Z,101493.03
2022-08-25T19:16:13.837Z,101494.84
2022-08-25T19:18:45.236Z,101505.16
2022-08-25T19:21:11.933Z,101514.28
2022-08-25T19:23:39.044Z,101509.00
2022-08-25T19:26:07.795Z,101509.66
2022-08-25T19:28:40.323Z,101512.16
2022-08-25T19:31:12.544Z,101526.44
2022-08-25T19:33:44.579Z,101513.97
2022-08-25T19:36:12.737Z,101520.25
2022-08-25T19:38:39.299Z,101523.50
2022-08-25T19:41:14.067Z,101523.59
2022-08-25T19:43:55.735Z,101525.34
2022-08-25T19:46:32.963Z,101536.41
2022-08-25T19:49:06.334Z,101538.97
2022-08-25T19:51:34.661Z,101542.34
2022-08-25T19:54:02.916Z,101549.34
2022-08-25T19:56:30.963Z,101552.94
2022-08-25T19:58:57.351Z,101549.19
2022-08-25T20:01:24.244Z,101556.06
2022-08-25T20:03:52.067Z,101559.41
2022-08-25T20:06:18.959Z,101556.09
2022-08-25T20:08:45.364Z,101563.66
2022-08-25T20:11:12.740Z,101560.03
2022-08-25T20:13:39.404Z,101559.00
2022-08-25T20:16:05.933Z,101562.31
2022-08-25T20:18:32.485Z,101570.44
2022-08-25T20:20:58.998Z,101567.94
2022-08-25T20:23:43.993Z,101577.19
2022-08-25T20:26:10.382Z,101580.72
2022-08-25T20:28:37.005Z,101573.38
2022-08-25T20:31:03.471Z,101585.59
2022-08-25T20:33:29.911Z,101579.91
2022-08-25T20:35:56.664Z,101577.94
2022-08-25T20:38:24.735Z,101578.16
2022-08-25T20:40:53.133Z,101582.13
2022-08-25T20:43:20.691Z,101596.25
2022-08-25T20:45:47.361Z,101594.34
2022-08-25T20:48:13.761Z,101596.19
2022-08-25T20:50:40.176Z,101589.19
2022-08-25T20:53:10.250Z,101595.22
2022-08-25T20:55:43.714Z,101597.25
2022-08-25T20:58:10.434Z,101603.72
2022-08-25T21:00:36.823Z,101604.38
2022-08-25T21:03:03.262Z,101604.91
2022-08-25T21:05:29.968Z,101604.63
2022-08-25T21:07:56.394Z,101610.63
2022-08-25T21:10:23.424Z,101616.63
2022-08-25T21:12:53.556Z,101613.75
2022-08-25T21:15:20.404Z,101616.38
2022-08-25T21:17:53.079Z,101615.91
2022-08-25T21:20:23.601Z,101623.13
2022-08-25T21:22:50.372Z,101627.31
2022-08-25T21:25:18.047Z,101625.09
2022-08-25T21:27:44.849Z,101622.09
2022-08-25T21:30:14.810Z,101623.88
2022-08-25T21:32:53.498Z,101627.13
2022-08-25T21:35:21.191Z,101622.19
2022-08-25T21:37:48.944Z,101634.56
2022-08-25T21:40:20.905Z,101643.06
2022-08-25T21:42:47.293Z,101647.91
2022-08-25T21:45:14.021Z,101643.09
2022-08-25T21:47:42.366Z,101642.03
2022-08-25T21:50:11.250Z,101643.47
2022-08-25T21:52:37.711Z,101651.38
2022-08-25T21:55:06.026Z,101649.78
2022-08-25T21:57:32.677Z,101651.53
2022-08-25T22:00:07.843Z,101655.25
2022-08-25T22:02:35.519Z,101655.59
2022-08-25T22:05:01.958Z,101655.38
2022-08-25T22:07:29.050Z,101656.84
2022-08-25T22:10:01.119Z,101657.81
2022-08-25T22:12:27.569Z,101661.19
2022-08-25T22:14:53.969Z,101653.66
2022-08-25T22:17:24.237Z,101654.31
2022-08-25T22:19:53.650Z,101649.66
2022-08-25T22:22:20.964Z,101646.44
2022-08-25T22:24:47.574Z,101656.38
2022-08-25T22:27:15.801Z,101650.94
2022-08-25T22:29:43.763Z,101659.78
2022-08-25T22:32:10.656Z,101656.56
2022-08-25T22:34:40.324Z,101654.00
2022-08-25T22:37:06.743Z,101652.72
2022-08-25T22:39:34.847Z,101658.34
2022-08-25T22:42:02.063Z,101661.41
2022-08-25T22:44:28.530Z,101650.34
2022-08-25T22:46:54.965Z,101656.59
2022-08-25T22:49:21.658Z,101664.28
2022-08-25T22:51:48.154Z,101655.78
2022-08-25T22:54:15.612Z,101662.38
2022-08-25T22:56:42.227Z,101672.94
2022-08-25T22:59:11.677Z,101673.56
2022-08-25T23:01:38.692Z,101669.91
2022-08-25T23:04:06.654Z,101674.25
2022-08-25T23:06:34.397Z,101673.91
2022-08-25T23:09:05.832Z,101672.63
2022-08-25T23:11:32.381Z,101674.25
2022-08-25T23:14:05.365Z,101674.88
2022-08-25T23:16:32.842Z,101674.88
2022-08-25T23:18:59.707Z,101669.28
2022-08-25T23:21:45.339Z,101682.72
2022-08-25T23:24:13.271Z,101683.06
2022-08-25T23:26:42.571Z,101682.25
2022-08-25T23:29:17.790Z,101681.13
2022-08-25T23:31:45.835Z,101682.91
2022-08-25T23:34:14.065Z,101683.19
2022-08-25T23:36:40.514Z,101680.00
2022-08-25T23:39:07.897Z,101687.22
2022-08-25T23:41:36.856Z,101687.22
2022-08-25T23:44:05.257Z,101680.66
2022-08-25T23:46:32.180Z,101682.56
2022-08-25T23:48:58.549Z,101674.38
2022-08-25T23:51:29.788Z,101673.59
2022-08-25T23:53:57.296Z,101676.63
2022-08-25T23:56:25.809Z,101679.53
2022-08-25T23:58:52.239Z,101681.44
